Concord, California
Current Conditions -  °F | °C
As of 9:53 PM on Tuesday 27 Jan 2015 (Local Time) from KCCR Reporting Station
Clear Clear  
Wind Chill: 51°   Ceiling: Unl
Heat Index: 51°   Visibility: 10mi
Dew Point: 45°   Wind: 0mph
Humidity: 80%   Direction: NA
Pressure: 30.26"   Gusts: NA
Location:  37.98°N, 122.02°W
Report Text: KCCR 280553Z 00000KT 10SM CLR 11/07 A3026 RMK AO2 SLP234 T01060072 10194 20100 53009
Loading
Personal Weather Stations






























Interactive Weather Map New forecast layout! Learn more

10-Day Weather Forecast

Advertisements
Track Severe Weather on mobile